sensor_id;sensor_type;location;lat;lon;timestamp;temperature;humidity
31521;DHT22;69043;51.224;4.424;2023-08-12T00:01:42;23.10;99.90
31521;DHT22;69043;51.224;4.424;2023-08-12T00:04:08;23.00;99.90
31521;DHT22;69043;51.224;4.424;2023-08-12T00:06:34;23.00;99.90
31521;DHT22;69043;51.224;4.424;2023-08-12T00:08:59;23.10;99.90
31521;DHT22;69043;51.224;4.424;2023-08-12T00:11:25;23.10;99.90
31521;DHT22;69043;51.224;4.424;2023-08-12T00:13:51;23.30;99.90
31521;DHT22;69043;51.224;4.424;2023-08-12T00:16:17;23.40;99.90
31521;DHT22;69043;51.224;4.424;2023-08-12T00:18:43;23.30;99.90
31521;DHT22;69043;51.224;4.424;2023-08-12T00:21:09;23.30;99.90
31521;DHT22;69043;51.224;4.424;2023-08-12T00:23:40;23.20;99.90
31521;DHT22;69043;51.224;4.424;2023-08-12T00:26:07;23.30;99.90
31521;DHT22;69043;51.224;4.424;2023-08-12T00:28:33;23.30;99.90
31521;DHT22;69043;51.224;4.424;2023-08-12T00:30:59;23.20;99.90
31521;DHT22;69043;51.224;4.424;2023-08-12T00:33:25;23.10;99.90
31521;DHT22;69043;51.224;4.424;2023-08-12T00:35:50;23.10;99.90
31521;DHT22;69043;51.224;4.424;2023-08-12T00:38:17;23.10;99.90
31521;DHT22;69043;51.224;4.424;2023-08-12T00:40:43;23.10;99.90
31521;DHT22;69043;51.224;4.424;2023-08-12T00:43:09;23.10;99.90
31521;DHT22;69043;51.224;4.424;2023-08-12T00:45:35;23.00;99.90
31521;DHT22;69043;51.224;4.424;2023-08-12T00:48:02;22.90;99.90
31521;DHT22;69043;51.224;4.424;2023-08-12T00:50:28;22.90;99.90
31521;DHT22;69043;51.224;4.424;2023-08-12T00:52:55;22.90;99.90
31521;DHT22;69043;51.224;4.424;2023-08-12T00:55:21;22.90;99.90
31521;DHT22;69043;51.224;4.424;2023-08-12T00:57:47;23.00;99.90
31521;DHT22;69043;51.224;4.424;2023-08-12T01:00:14;22.90;99.90
31521;DHT22;69043;51.224;4.424;2023-08-12T01:02:42;23.00;99.90
31521;DHT22;69043;51.224;4.424;2023-08-12T01:05:11;23.10;99.90
31521;DHT22;69043;51.224;4.424;2023-08-12T01:07:36;23.10;99.90
31521;DHT22;69043;51.224;4.424;2023-08-12T01:10:02;23.20;99.90
31521;DHT22;69043;51.224;4.424;2023-08-12T01:12:45;23.10;99.90
31521;DHT22;69043;51.224;4.424;2023-08-12T01:15:17;23.00;99.90
31521;DHT22;69043;51.224;4.424;2023-08-12T01:17:46;22.90;99.90
31521;DHT22;69043;51.224;4.424;2023-08-12T01:20:17;23.00;99.90
31521;DHT22;69043;51.224;4.424;2023-08-12T01:23:13;23.10;99.90
31521;DHT22;69043;51.224;4.424;2023-08-12T01:25:39;23.10;99.90
31521;DHT22;69043;51.224;4.424;2023-08-12T01:28:05;23.20;99.90
31521;DHT22;69043;51.224;4.424;2023-08-12T01:30:46;23.10;99.90
31521;DHT22;69043;51.224;4.424;2023-08-12T01:33:18;23.00;99.90
31521;DHT22;69043;51.224;4.424;2023-08-12T01:35:54;23.10;99.90
31521;DHT22;69043;51.224;4.424;2023-08-12T01:38:22;23.10;99.90
31521;DHT22;69043;51.224;4.424;2023-08-12T01:40:49;23.00;99.90
31521;DHT22;69043;51.224;4.424;2023-08-12T01:43:16;23.10;99.90
31521;DHT22;69043;51.224;4.424;2023-08-12T01:45:41;23.20;99.90
31521;DHT22;69043;51.224;4.424;2023-08-12T01:48:07;23.20;99.90
31521;DHT22;69043;51.224;4.424;2023-08-12T01:50:33;23.10;99.90
31521;DHT22;69043;51.224;4.424;2023-08-12T01:52:59;23.00;99.90
31521;DHT22;69043;51.224;4.424;2023-08-12T01:55:25;23.00;99.90
31521;DHT22;69043;51.224;4.424;2023-08-12T01:57:52;22.80;99.90
31521;DHT22;69043;51.224;4.424;2023-08-12T02:00:17;22.70;99.90
31521;DHT22;69043;51.224;4.424;2023-08-12T02:02:43;22.80;99.90
31521;DHT22;69043;51.224;4.424;2023-08-12T02:05:12;22.80;99.90
31521;DHT22;69043;51.224;4.424;2023-08-12T02:07:40;22.80;99.90
31521;DHT22;69043;51.224;4.424;2023-08-12T02:10:09;22.80;99.90
31521;DHT22;69043;51.224;4.424;2023-08-12T02:12:35;22.80;99.90
31521;DHT22;69043;51.224;4.424;2023-08-12T02:15:01;22.70;99.90
31521;DHT22;69043;51.224;4.424;2023-08-12T02:17:26;22.50;99.90
31521;DHT22;69043;51.224;4.424;2023-08-12T02:19:52;22.50;99.90
31521;DHT22;69043;51.224;4.424;2023-08-12T02:22:18;22.50;99.90
31521;DHT22;69043;51.224;4.424;2023-08-12T02:24:44;22.50;99.90
31521;DHT22;69043;51.224;4.424;2023-08-12T02:27:11;22.50;99.90
31521;DHT22;69043;51.224;4.424;2023-08-12T02:29:37;22.40;99.90
31521;DHT22;69043;51.224;4.424;2023-08-12T02:32:03;22.40;99.90
31521;DHT22;69043;51.224;4.424;2023-08-12T02:34:28;22.30;99.90
31521;DHT22;69043;51.224;4.424;2023-08-12T02:36:54;22.20;99.90
31521;DHT22;69043;51.224;4.424;2023-08-12T02:39:20;22.20;99.90
31521;DHT22;69043;51.224;4.424;2023-08-12T02:41:46;22.30;99.90
31521;DHT22;69043;51.224;4.424;2023-08-12T02:44:12;22.20;99.90
31521;DHT22;69043;51.224;4.424;2023-08-12T02:46:37;22.40;99.90
31521;DHT22;69043;51.224;4.424;2023-08-12T02:49:03;22.40;99.90
31521;DHT22;69043;51.224;4.424;2023-08-12T02:51:29;22.50;99.90
31521;DHT22;69043;51.224;4.424;2023-08-12T02:53:55;22.50;99.90
31521;DHT22;69043;51.224;4.424;2023-08-12T02:56:21;22.60;99.90
31521;DHT22;69043;51.224;4.424;2023-08-12T02:58:46;22.50;99.90
31521;DHT22;69043;51.224;4.424;2023-08-12T03:01:13;22.70;99.90
31521;DHT22;69043;51.224;4.424;2023-08-12T03:03:38;22.90;99.90
31521;DHT22;69043;51.224;4.424;2023-08-12T03:06:05;22.80;99.90
31521;DHT22;69043;51.224;4.424;2023-08-12T03:08:31;22.70;99.90
31521;DHT22;69043;51.224;4.424;2023-08-12T03:11:00;22.80;99.90
31521;DHT22;69043;51.224;4.424;2023-08-12T03:13:27;22.90;99.90
31521;DHT22;69043;51.224;4.424;2023-08-12T03:15:55;22.80;99.90
31521;DHT22;69043;51.224;4.424;2023-08-12T03:18:21;22.80;99.90
31521;DHT22;69043;51.224;4.424;2023-08-12T03:20:47;22.60;99.90
31521;DHT22;69043;51.224;4.424;2023-08-12T03:23:13;22.60;99.90
31521;DHT22;69043;51.224;4.424;2023-08-12T03:25:39;22.50;99.90
31521;DHT22;69043;51.224;4.424;2023-08-12T03:28:05;22.40;99.90
31521;DHT22;69043;51.224;4.424;2023-08-12T03:30:31;22.30;99.90
31521;DHT22;69043;51.224;4.424;2023-08-12T03:32:57;21.90;99.90
31521;DHT22;69043;51.224;4.424;2023-08-12T03:35:23;21.70;99.90
31521;DHT22;69043;51.224;4.424;2023-08-12T03:37:48;21.50;99.90
31521;DHT22;69043;51.224;4.424;2023-08-12T03:40:14;21.30;99.90
31521;DHT22;69043;51.224;4.424;2023-08-12T03:42:40;21.40;99.90
31521;DHT22;69043;51.224;4.424;2023-08-12T03:45:06;21.50;99.90
31521;DHT22;69043;51.224;4.424;2023-08-12T03:47:32;21.50;99.90
31521;DHT22;69043;51.224;4.424;2023-08-12T03:49:58;21.50;99.90
31521;DHT22;69043;51.224;4.424;2023-08-12T03:52:24;21.40;99.90
31521;DHT22;69043;51.224;4.424;2023-08-12T03:54:49;21.50;99.90
31521;DHT22;69043;51.224;4.424;2023-08-12T03:57:15;21.70;99.90
31521;DHT22;69043;51.224;4.424;2023-08-12T03:59:41;21.70;99.90
31521;DHT22;69043;51.224;4.424;2023-08-12T04:02:07;21.70;99.90
31521;DHT22;69043;51.224;4.424;2023-08-12T04:04:32;21.60;99.90
31521;DHT22;69043;51.224;4.424;2023-08-12T04:06:58;21.40;99.90
31521;DHT22;69043;51.224;4.424;2023-08-12T04:09:27;21.20;99.90
31521;DHT22;69043;51.224;4.424;2023-08-12T04:11:53;21.20;99.90
31521;DHT22;69043;51.224;4.424;2023-08-12T04:14:18;21.10;99.90
31521;DHT22;69043;51.224;4.424;2023-08-12T04:16:45;21.10;99.90
31521;DHT22;69043;51.224;4.424;2023-08-12T04:19:11;21.00;99.90
31521;DHT22;69043;51.224;4.424;2023-08-12T04:21:36;21.00;99.90
31521;DHT22;69043;51.224;4.424;2023-08-12T04:24:02;21.00;99.90
31521;DHT22;69043;51.224;4.424;2023-08-12T04:26:28;21.00;99.90
31521;DHT22;69043;51.224;4.424;2023-08-12T04:28:54;21.00;99.90
31521;DHT22;69043;51.224;4.424;2023-08-12T04:31:19;20.90;99.90
31521;DHT22;69043;51.224;4.424;2023-08-12T04:33:45;21.00;99.90
31521;DHT22;69043;51.224;4.424;2023-08-12T04:36:11;20.90;99.90
31521;DHT22;69043;51.224;4.424;2023-08-12T04:38:37;20.90;99.90
31521;DHT22;69043;51.224;4.424;2023-08-12T04:41:02;20.90;99.90
31521;DHT22;69043;51.224;4.424;2023-08-12T04:43:28;20.90;99.90
31521;DHT22;69043;51.224;4.424;2023-08-12T04:45:54;21.00;99.90
31521;DHT22;69043;51.224;4.424;2023-08-12T04:48:20;21.00;99.90
31521;DHT22;69043;51.224;4.424;2023-08-12T04:50:46;21.00;99.90
31521;DHT22;69043;51.224;4.424;2023-08-12T04:53:11;21.00;99.90
31521;DHT22;69043;51.224;4.424;2023-08-12T04:55:37;21.00;99.90
31521;DHT22;69043;51.224;4.424;2023-08-12T04:58:04;21.00;99.90
31521;DHT22;69043;51.224;4.424;2023-08-12T05:00:30;21.00;99.90
31521;DHT22;69043;51.224;4.424;2023-08-12T05:02:56;20.90;99.90
31521;DHT22;69043;51.224;4.424;2023-08-12T05:05:22;20.80;99.90
31521;DHT22;69043;51.224;4.424;2023-08-12T05:07:48;20.90;99.90
31521;DHT22;69043;51.224;4.424;2023-08-12T05:10:15;21.00;99.90
31521;DHT22;69043;51.224;4.424;2023-08-12T05:12:42;20.90;99.90
31521;DHT22;69043;51.224;4.424;2023-08-12T05:15:09;21.10;99.90
31521;DHT22;69043;51.224;4.424;2023-08-12T05:17:35;21.00;99.90
31521;DHT22;69043;51.224;4.424;2023-08-12T05:20:01;21.00;99.90
31521;DHT22;69043;51.224;4.424;2023-08-12T05:22:27;21.00;99.90
31521;DHT22;69043;51.224;4.424;2023-08-12T05:24:52;21.00;99.90
31521;DHT22;69043;51.224;4.424;2023-08-12T05:27:18;21.00;99.90
31521;DHT22;69043;51.224;4.424;2023-08-12T05:29:44;20.90;99.90
31521;DHT22;69043;51.224;4.424;2023-08-12T05:32:10;21.00;99.90
31521;DHT22;69043;51.224;4.424;2023-08-12T05:34:35;21.00;99.90
31521;DHT22;69043;51.224;4.424;2023-08-12T05:37:01;21.00;99.90
31521;DHT22;69043;51.224;4.424;2023-08-12T05:39:27;21.10;99.90
31521;DHT22;69043;51.224;4.424;2023-08-12T05:41:52;21.00;99.90
31521;DHT22;69043;51.224;4.424;2023-08-12T05:44:18;21.10;99.90
31521;DHT22;69043;51.224;4.424;2023-08-12T05:46:44;21.00;99.90
31521;DHT22;69043;51.224;4.424;2023-08-12T05:49:10;21.10;99.90
31521;DHT22;69043;51.224;4.424;2023-08-12T05:51:36;21.30;99.90
31521;DHT22;69043;51.224;4.424;2023-08-12T05:54:01;21.40;99.90
31521;DHT22;69043;51.224;4.424;2023-08-12T05:56:30;21.30;99.90
31521;DHT22;69043;51.224;4.424;2023-08-12T05:58:56;21.40;99.90
31521;DHT22;69043;51.224;4.424;2023-08-12T06:01:22;21.50;99.90
31521;DHT22;69043;51.224;4.424;2023-08-12T06:03:48;21.60;99.90
31521;DHT22;69043;51.224;4.424;2023-08-12T06:06:13;21.70;99.90
31521;DHT22;69043;51.224;4.424;2023-08-12T06:08:39;21.60;99.90
31521;DHT22;69043;51.224;4.424;2023-08-12T06:11:04;21.60;99.90
31521;DHT22;69043;51.224;4.424;2023-08-12T06:13:30;21.60;99.90
31521;DHT22;69043;51.224;4.424;2023-08-12T06:15:56;21.50;99.90
31521;DHT22;69043;51.224;4.424;2023-08-12T06:18:22;21.60;99.90
31521;DHT22;69043;51.224;4.424;2023-08-12T06:20:48;21.60;99.90
31521;DHT22;69043;51.224;4.424;2023-08-12T06:23:15;21.50;99.90
31521;DHT22;69043;51.224;4.424;2023-08-12T06:25:41;21.40;99.90
31521;DHT22;69043;51.224;4.424;2023-08-12T06:28:08;21.50;99.90
31521;DHT22;69043;51.224;4.424;2023-08-12T06:30:34;21.60;99.90
31521;DHT22;69043;51.224;4.424;2023-08-12T06:33:00;21.60;99.90
31521;DHT22;69043;51.224;4.424;2023-08-12T06:35:26;21.60;99.90
31521;DHT22;69043;51.224;4.424;2023-08-12T06:37:51;21.60;99.90
31521;DHT22;69043;51.224;4.424;2023-08-12T06:40:17;21.60;99.90
31521;DHT22;69043;51.224;4.424;2023-08-12T06:42:43;21.60;99.90
31521;DHT22;69043;51.224;4.424;2023-08-12T06:45:09;21.70;99.90
31521;DHT22;69043;51.224;4.424;2023-08-12T06:47:35;21.80;99.90
31521;DHT22;69043;51.224;4.424;2023-08-12T06:50:00;21.80;99.90
31521;DHT22;69043;51.224;4.424;2023-08-12T06:52:27;21.80;99.90
31521;DHT22;69043;51.224;4.424;2023-08-12T06:54:53;21.90;99.90
31521;DHT22;69043;51.224;4.424;2023-08-12T06:57:18;22.00;99.90
31521;DHT22;69043;51.224;4.424;2023-08-12T06:59:44;22.00;99.90
31521;DHT22;69043;51.224;4.424;2023-08-12T07:02:10;21.80;99.90
31521;DHT22;69043;51.224;4.424;2023-08-12T07:04:36;21.70;99.90
31521;DHT22;69043;51.224;4.424;2023-08-12T07:07:01;21.70;99.90
31521;DHT22;69043;51.224;4.424;2023-08-12T07:09:27;21.60;99.90
31521;DHT22;69043;51.224;4.424;2023-08-12T07:11:53;21.50;99.90
31521;DHT22;69043;51.224;4.424;2023-08-12T07:14:18;21.40;99.90
31521;DHT22;69043;51.224;4.424;2023-08-12T07:16:44;21.40;99.90
31521;DHT22;69043;51.224;4.424;2023-08-12T07:19:10;21.40;99.90
31521;DHT22;69043;51.224;4.424;2023-08-12T07:21:36;21.40;99.90
31521;DHT22;69043;51.224;4.424;2023-08-12T07:24:02;21.40;99.90
31521;DHT22;69043;51.224;4.424;2023-08-12T07:26:27;21.40;99.90
31521;DHT22;69043;51.224;4.424;2023-08-12T07:28:53;21.20;99.90
31521;DHT22;69043;51.224;4.424;2023-08-12T07:31:19;21.20;99.90
31521;DHT22;69043;51.224;4.424;2023-08-12T07:33:45;21.10;99.90
31521;DHT22;69043;51.224;4.424;2023-08-12T07:36:10;21.10;99.90
31521;DHT22;69043;51.224;4.424;2023-08-12T07:38:36;21.00;99.90
31521;DHT22;69043;51.224;4.424;2023-08-12T07:41:02;21.00;99.90
31521;DHT22;69043;51.224;4.424;2023-08-12T07:43:27;20.90;99.90
31521;DHT22;69043;51.224;4.424;2023-08-12T07:45:53;20.90;99.90
31521;DHT22;69043;51.224;4.424;2023-08-12T07:48:20;20.80;99.90
31521;DHT22;69043;51.224;4.424;2023-08-12T07:50:46;20.80;99.90
31521;DHT22;69043;51.224;4.424;2023-08-12T07:53:15;20.90;99.90
31521;DHT22;69043;51.224;4.424;2023-08-12T07:55:42;21.00;99.90
31521;DHT22;69043;51.224;4.424;2023-08-12T07:58:07;21.00;99.90
31521;DHT22;69043;51.224;4.424;2023-08-12T08:00:33;21.30;99.90
31521;DHT22;69043;51.224;4.424;2023-08-12T08:02:59;21.40;99.90
31521;DHT22;69043;51.224;4.424;2023-08-12T08:05:25;21.60;99.90
31521;DHT22;69043;51.224;4.424;2023-08-12T08:07:50;21.70;99.90
31521;DHT22;69043;51.224;4.424;2023-08-12T08:10:16;21.50;99.90
31521;DHT22;69043;51.224;4.424;2023-08-12T08:12:42;21.50;99.90
31521;DHT22;69043;51.224;4.424;2023-08-12T08:15:08;21.50;99.90
31521;DHT22;69043;51.224;4.424;2023-08-12T08:17:34;21.70;99.90
31521;DHT22;69043;51.224;4.424;2023-08-12T08:19:59;21.90;99.90
31521;DHT22;69043;51.224;4.424;2023-08-12T08:22:25;22.00;99.90
31521;DHT22;69043;51.224;4.424;2023-08-12T08:24:51;22.10;99.90
31521;DHT22;69043;51.224;4.424;2023-08-12T08:27:16;22.30;99.90
31521;DHT22;69043;51.224;4.424;2023-08-12T08:29:42;22.20;99.90
31521;DHT22;69043;51.224;4.424;2023-08-12T08:32:08;22.10;99.90
31521;DHT22;69043;51.224;4.424;2023-08-12T08:34:34;22.00;99.90
31521;DHT22;69043;51.224;4.424;2023-08-12T08:37:00;22.10;99.90
31521;DHT22;69043;51.224;4.424;2023-08-12T08:39:25;22.20;99.90
31521;DHT22;69043;51.224;4.424;2023-08-12T08:41:54;22.30;99.90
31521;DHT22;69043;51.224;4.424;2023-08-12T08:44:22;22.50;99.90
31521;DHT22;69043;51.224;4.424;2023-08-12T08:46:51;22.60;99.90
31521;DHT22;69043;51.224;4.424;2023-08-12T08:49:18;22.60;99.90
31521;DHT22;69043;51.224;4.424;2023-08-12T08:51:46;22.80;99.90
31521;DHT22;69043;51.224;4.424;2023-08-12T08:54:12;22.90;99.90
31521;DHT22;69043;51.224;4.424;2023-08-12T08:56:39;23.10;99.90
31521;DHT22;69043;51.224;4.424;2023-08-12T08:59:05;23.20;99.90
31521;DHT22;69043;51.224;4.424;2023-08-12T09:01:31;23.20;99.90
31521;DHT22;69043;51.224;4.424;2023-08-12T09:03:58;23.10;99.90
31521;DHT22;69043;51.224;4.424;2023-08-12T09:06:25;23.20;99.90
31521;DHT22;69043;51.224;4.424;2023-08-12T09:08:53;23.40;99.90
31521;DHT22;69043;51.224;4.424;2023-08-12T09:11:19;23.70;99.90
31521;DHT22;69043;51.224;4.424;2023-08-12T09:13:46;24.00;99.90
31521;DHT22;69043;51.224;4.424;2023-08-12T09:16:12;24.00;99.90
31521;DHT22;69043;51.224;4.424;2023-08-12T09:18:40;24.20;99.90
31521;DHT22;69043;51.224;4.424;2023-08-12T09:21:08;24.20;99.90
31521;DHT22;69043;51.224;4.424;2023-08-12T09:23:38;24.50;99.90
31521;DHT22;69043;51.224;4.424;2023-08-12T09:26:14;24.60;99.90
31521;DHT22;69043;51.224;4.424;2023-08-12T09:28:41;24.80;99.90
31521;DHT22;69043;51.224;4.424;2023-08-12T09:31:07;24.80;99.90
31521;DHT22;69043;51.224;4.424;2023-08-12T09:33:37;24.80;99.90
31521;DHT22;69043;51.224;4.424;2023-08-12T09:36:04;24.70;99.90
31521;DHT22;69043;51.224;4.424;2023-08-12T09:38:30;24.50;99.90
31521;DHT22;69043;51.224;4.424;2023-08-12T09:40:56;24.30;99.90
31521;DHT22;69043;51.224;4.424;2023-08-12T09:43:27;24.10;99.90
31521;DHT22;69043;51.224;4.424;2023-08-12T09:45:56;23.90;99.90
31521;DHT22;69043;51.224;4.424;2023-08-12T09:48:24;24.10;99.90
31521;DHT22;69043;51.224;4.424;2023-08-12T09:50:50;24.10;99.90
31521;DHT22;69043;51.224;4.424;2023-08-12T09:53:16;24.40;99.90
31521;DHT22;69043;51.224;4.424;2023-08-12T09:55:43;24.30;99.90
31521;DHT22;69043;51.224;4.424;2023-08-12T09:58:16;24.20;99.90
31521;DHT22;69043;51.224;4.424;2023-08-12T10:00:47;24.10;99.90
31521;DHT22;69043;51.224;4.424;2023-08-12T10:03:20;23.80;99.90
31521;DHT22;69043;51.224;4.424;2023-08-12T10:05:47;23.60;99.90
31521;DHT22;69043;51.224;4.424;2023-08-12T10:08:14;23.60;99.90
31521;DHT22;69043;51.224;4.424;2023-08-12T10:10:39;23.50;99.90
31521;DHT22;69043;51.224;4.424;2023-08-12T10:13:06;23.40;99.90
31521;DHT22;69043;51.224;4.424;2023-08-12T10:15:34;23.20;99.90
31521;DHT22;69043;51.224;4.424;2023-08-12T10:18:00;23.30;99.90
31521;DHT22;69043;51.224;4.424;2023-08-12T10:20:26;23.50;99.90
31521;DHT22;69043;51.224;4.424;2023-08-12T10:22:53;23.70;99.90
31521;DHT22;69043;51.224;4.424;2023-08-12T10:25:25;23.80;99.90
31521;DHT22;69043;51.224;4.424;2023-08-12T10:27:56;23.90;99.90
31521;DHT22;69043;51.224;4.424;2023-08-12T10:30:22;24.30;99.90
31521;DHT22;69043;51.224;4.424;2023-08-12T10:32:47;24.70;99.90
31521;DHT22;69043;51.224;4.424;2023-08-12T10:35:13;24.90;99.90
31521;DHT22;69043;51.224;4.424;2023-08-12T10:37:39;24.90;99.90
31521;DHT22;69043;51.224;4.424;2023-08-12T10:40:20;25.00;99.90
31521;DHT22;69043;51.224;4.424;2023-08-12T10:42:47;25.10;99.90
31521;DHT22;69043;51.224;4.424;2023-08-12T10:45:15;25.00;99.90
31521;DHT22;69043;51.224;4.424;2023-08-12T10:48:15;25.00;99.90
31521;DHT22;69043;51.224;4.424;2023-08-12T10:50:44;25.10;99.90
31521;DHT22;69043;51.224;4.424;2023-08-12T10:53:33;24.90;99.90
31521;DHT22;69043;51.224;4.424;2023-08-12T10:56:04;24.80;99.90
31521;DHT22;69043;51.224;4.424;2023-08-12T10:58:44;24.80;99.90
31521;DHT22;69043;51.224;4.424;2023-08-12T11:01:16;25.00;99.90
31521;DHT22;69043;51.224;4.424;2023-08-12T11:03:43;25.00;99.90
31521;DHT22;69043;51.224;4.424;2023-08-12T11:06:13;25.10;99.90
31521;DHT22;69043;51.224;4.424;2023-08-12T11:08:52;25.00;99.90
31521;DHT22;69043;51.224;4.424;2023-08-12T11:11:24;25.00;99.90
31521;DHT22;69043;51.224;4.424;2023-08-12T11:13:57;25.20;99.90
31521;DHT22;69043;51.224;4.424;2023-08-12T11:16:37;25.40;99.90
31521;DHT22;69043;51.224;4.424;2023-08-12T11:19:07;25.20;99.90
31521;DHT22;69043;51.224;4.424;2023-08-12T11:21:36;25.20;99.90
31521;DHT22;69043;51.224;4.424;2023-08-12T11:24:02;25.20;99.90
31521;DHT22;69043;51.224;4.424;2023-08-12T11:26:28;25.40;99.90
31521;DHT22;69043;51.224;4.424;2023-08-12T11:28:54;25.30;99.90
31521;DHT22;69043;51.224;4.424;2023-08-12T11:31:21;25.20;99.90
31521;DHT22;69043;51.224;4.424;2023-08-12T11:33:48;25.70;99.90
31521;DHT22;69043;51.224;4.424;2023-08-12T11:36:15;26.40;99.90
31521;DHT22;69043;51.224;4.424;2023-08-12T11:38:42;27.20;99.90
31521;DHT22;69043;51.224;4.424;2023-08-12T11:41:10;27.60;99.90
31521;DHT22;69043;51.224;4.424;2023-08-12T11:43:37;28.00;99.90
31521;DHT22;69043;51.224;4.424;2023-08-12T11:46:03;28.40;99.90
31521;DHT22;69043;51.224;4.424;2023-08-12T11:48:28;29.00;99.90
31521;DHT22;69043;51.224;4.424;2023-08-12T11:50:55;29.20;99.90
31521;DHT22;69043;51.224;4.424;2023-08-12T11:53:21;29.10;99.90
31521;DHT22;69043;51.224;4.424;2023-08-12T11:55:47;29.00;99.90
31521;DHT22;69043;51.224;4.424;2023-08-12T11:58:14;29.70;99.90
31521;DHT22;69043;51.224;4.424;2023-08-12T12:00:46;29.70;99.90
31521;DHT22;69043;51.224;4.424;2023-08-12T12:03:12;30.50;99.90
31521;DHT22;69043;51.224;4.424;2023-08-12T12:05:41;30.40;99.90
31521;DHT22;69043;51.224;4.424;2023-08-12T12:08:07;30.90;99.90
31521;DHT22;69043;51.224;4.424;2023-08-12T12:10:35;30.80;99.90
31521;DHT22;69043;51.224;4.424;2023-08-12T12:13:02;30.30;99.90
31521;DHT22;69043;51.224;4.424;2023-08-12T12:15:29;29.20;99.90
31521;DHT22;69043;51.224;4.424;2023-08-12T12:17:54;28.80;99.90
31521;DHT22;69043;51.224;4.424;2023-08-12T12:20:20;29.40;99.90
31521;DHT22;69043;51.224;4.424;2023-08-12T12:22:47;30.20;99.90
31521;DHT22;69043;51.224;4.424;2023-08-12T12:25:14;31.20;99.90
31521;DHT22;69043;51.224;4.424;2023-08-12T12:27:47;32.00;99.90
31521;DHT22;69043;51.224;4.424;2023-08-12T12:30:14;32.50;99.90
31521;DHT22;69043;51.224;4.424;2023-08-12T12:32:40;32.80;99.90
31521;DHT22;69043;51.224;4.424;2023-08-12T12:35:09;33.70;99.90
31521;DHT22;69043;51.224;4.424;2023-08-12T12:37:35;33.90;99.30
31521;DHT22;69043;51.224;4.424;2023-08-12T12:40:02;34.00;96.40
31521;DHT22;69043;51.224;4.424;2023-08-12T12:42:28;33.40;96.80
31521;DHT22;69043;51.224;4.424;2023-08-12T12:44:54;33.00;95.80
31521;DHT22;69043;51.224;4.424;2023-08-12T12:47:20;33.00;96.40
31521;DHT22;69043;51.224;4.424;2023-08-12T12:49:46;33.50;97.40
31521;DHT22;69043;51.224;4.424;2023-08-12T12:52:12;34.10;95.00
31521;DHT22;69043;51.224;4.424;2023-08-12T12:54:37;33.70;95.40
31521;DHT22;69043;51.224;4.424;2023-08-12T12:57:03;31.90;97.10
31521;DHT22;69043;51.224;4.424;2023-08-12T12:59:30;31.10;96.80
31521;DHT22;69043;51.224;4.424;2023-08-12T13:01:56;31.20;97.70
31521;DHT22;69043;51.224;4.424;2023-08-12T13:04:25;31.50;96.60
31521;DHT22;69043;51.224;4.424;2023-08-12T13:06:50;31.50;96.80
31521;DHT22;69043;51.224;4.424;2023-08-12T13:09:16;30.50;97.80
31521;DHT22;69043;51.224;4.424;2023-08-12T13:11:42;29.80;98.50
31521;DHT22;69043;51.224;4.424;2023-08-12T13:14:07;29.40;99.50
31521;DHT22;69043;51.224;4.424;2023-08-12T13:16:37;29.70;99.20
31521;DHT22;69043;51.224;4.424;2023-08-12T13:19:03;29.30;99.70
31521;DHT22;69043;51.224;4.424;2023-08-12T13:21:29;28.80;99.60
31521;DHT22;69043;51.224;4.424;2023-08-12T13:23:54;28.40;99.90
31521;DHT22;69043;51.224;4.424;2023-08-12T13:26:21;29.10;99.90
31521;DHT22;69043;51.224;4.424;2023-08-12T13:28:47;30.60;98.90
31521;DHT22;69043;51.224;4.424;2023-08-12T13:31:13;30.90;98.50
31521;DHT22;69043;51.224;4.424;2023-08-12T13:33:39;31.60;97.50
31521;DHT22;69043;51.224;4.424;2023-08-12T13:36:05;31.80;96.70
31521;DHT22;69043;51.224;4.424;2023-08-12T13:38:30;31.80;96.70
31521;DHT22;69043;51.224;4.424;2023-08-12T13:40:56;32.20;96.50
31521;DHT22;69043;51.224;4.424;2023-08-12T13:43:22;33.30;95.20
31521;DHT22;69043;51.224;4.424;2023-08-12T13:45:48;32.80;94.30
31521;DHT22;69043;51.224;4.424;2023-08-12T13:48:13;31.60;95.20
31521;DHT22;69043;51.224;4.424;2023-08-12T13:50:40;31.20;94.90
31521;DHT22;69043;51.224;4.424;2023-08-12T13:53:05;31.00;95.80
31521;DHT22;69043;51.224;4.424;2023-08-12T13:55:31;30.50;96.00
31521;DHT22;69043;51.224;4.424;2023-08-12T13:57:57;30.00;96.60
31521;DHT22;69043;51.224;4.424;2023-08-12T14:00:23;29.70;97.30
31521;DHT22;69043;51.224;4.424;2023-08-12T14:02:50;29.60;97.30
31521;DHT22;69043;51.224;4.424;2023-08-12T14:05:15;29.40;97.30
31521;DHT22;69043;51.224;4.424;2023-08-12T14:07:41;29.00;97.30
31521;DHT22;69043;51.224;4.424;2023-08-12T14:10:07;28.40;98.10
31521;DHT22;69043;51.224;4.424;2023-08-12T14:12:34;27.90;98.40
31521;DHT22;69043;51.224;4.424;2023-08-12T14:15:00;29.00;98.20
31521;DHT22;69043;51.224;4.424;2023-08-12T14:17:25;30.60;96.70
31521;DHT22;69043;51.224;4.424;2023-08-12T14:19:52;32.30;94.50
31521;DHT22;69043;51.224;4.424;2023-08-12T14:22:19;33.00;92.40
31521;DHT22;69043;51.224;4.424;2023-08-12T14:24:45;33.90;92.10
31521;DHT22;69043;51.224;4.424;2023-08-12T14:27:11;34.80;90.60
31521;DHT22;69043;51.224;4.424;2023-08-12T14:29:38;35.30;88.00
31521;DHT22;69043;51.224;4.424;2023-08-12T14:32:04;34.60;88.90
31521;DHT22;69043;51.224;4.424;2023-08-12T14:34:30;35.10;86.40
31521;DHT22;69043;51.224;4.424;2023-08-12T14:36:56;35.50;85.30
31521;DHT22;69043;51.224;4.424;2023-08-12T14:39:21;35.80;82.90
31521;DHT22;69043;51.224;4.424;2023-08-12T14:41:47;34.80;84.00
31521;DHT22;69043;51.224;4.424;2023-08-12T14:44:14;34.70;84.80
31521;DHT22;69043;51.224;4.424;2023-08-12T14:46:44;35.50;83.50
31521;DHT22;69043;51.224;4.424;2023-08-12T14:49:12;36.50;80.70
31521;DHT22;69043;51.224;4.424;2023-08-12T14:51:38;37.60;76.60
31521;DHT22;69043;51.224;4.424;2023-08-12T14:54:04;37.50;75.90
31521;DHT22;69043;51.224;4.424;2023-08-12T14:56:30;37.00;76.20
31521;DHT22;69043;51.224;4.424;2023-08-12T14:58:56;35.60;76.80
31521;DHT22;69043;51.224;4.424;2023-08-12T15:01:21;34.30;78.70
31521;DHT22;69043;51.224;4.424;2023-08-12T15:03:49;33.90;80.00
31521;DHT22;69043;51.224;4.424;2023-08-12T15:06:15;33.30;80.50
31521;DHT22;69043;51.224;4.424;2023-08-12T15:08:42;32.40;82.10
31521;DHT22;69043;51.224;4.424;2023-08-12T15:11:08;31.40;84.90
31521;DHT22;69043;51.224;4.424;2023-08-12T15:13:34;31.10;87.30
31521;DHT22;69043;51.224;4.424;2023-08-12T15:16:00;31.30;85.80
31521;DHT22;69043;51.224;4.424;2023-08-12T15:18:25;30.80;85.70
31521;DHT22;69043;51.224;4.424;2023-08-12T15:20:51;30.60;87.20
31521;DHT22;69043;51.224;4.424;2023-08-12T15:23:17;31.30;86.40
31521;DHT22;69043;51.224;4.424;2023-08-12T15:25:43;32.50;85.10
31521;DHT22;69043;51.224;4.424;2023-08-12T15:28:10;33.30;83.70